sensor_id;sensor_type;location;lat;lon;timestamp;temperature;humidity
67054;SHT31;53960;51.826;5.850;2023-10-13T00:01:21;17.34;98.89
67054;SHT31;53960;51.826;5.850;2023-10-13T00:03:47;17.36;98.82
67054;SHT31;53960;51.826;5.850;2023-10-13T00:06:12;17.40;98.68
67054;SHT31;53960;51.826;5.850;2023-10-13T00:08:37;17.40;98.64
67054;SHT31;53960;51.826;5.850;2023-10-13T00:11:04;17.42;98.62
67054;SHT31;53960;51.826;5.850;2023-10-13T00:13:30;17.34;98.68
67054;SHT31;53960;51.826;5.850;2023-10-13T00:16:07;17.39;98.70
67054;SHT31;53960;51.826;5.850;2023-10-13T00:18:35;17.37;98.65
67054;SHT31;53960;51.826;5.850;2023-10-13T00:21:07;17.39;98.71
67054;SHT31;53960;51.826;5.850;2023-10-13T00:23:42;17.40;98.57
67054;SHT31;53960;51.826;5.850;2023-10-13T00:26:21;17.37;98.71
67054;SHT31;53960;51.826;5.850;2023-10-13T00:28:52;17.33;98.78
67054;SHT31;53960;51.826;5.850;2023-10-13T00:31:35;17.40;98.76
67054;SHT31;53960;51.826;5.850;2023-10-13T00:34:02;17.37;98.78
67054;SHT31;53960;51.826;5.850;2023-10-13T00:36:44;17.33;98.91
67054;SHT31;53960;51.826;5.850;2023-10-13T00:39:36;17.37;98.81
67054;SHT31;53960;51.826;5.850;2023-10-13T00:42:12;17.42;98.76
67054;SHT31;53960;51.826;5.850;2023-10-13T00:44:45;17.37;98.64
67054;SHT31;53960;51.826;5.850;2023-10-13T00:47:18;17.39;98.74
67054;SHT31;53960;51.826;5.850;2023-10-13T00:50:03;17.40;98.63
67054;SHT31;53960;51.826;5.850;2023-10-13T00:52:30;17.37;98.67
67054;SHT31;53960;51.826;5.850;2023-10-13T00:54:56;17.36;98.71
67054;SHT31;53960;51.826;5.850;2023-10-13T00:57:26;17.36;98.77
67054;SHT31;53960;51.826;5.850;2023-10-13T00:59:53;17.36;98.77
67054;SHT31;53960;51.826;5.850;2023-10-13T01:02:19;17.39;98.56
67054;SHT31;53960;51.826;5.850;2023-10-13T01:05:04;17.39;98.65
67054;SHT31;53960;51.826;5.850;2023-10-13T01:07:29;17.37;98.64
67054;SHT31;53960;51.826;5.850;2023-10-13T01:09:54;17.34;98.77
67054;SHT31;53960;51.826;5.850;2023-10-13T01:12:21;17.43;98.63
67054;SHT31;53960;51.826;5.850;2023-10-13T01:14:49;17.40;98.53
67054;SHT31;53960;51.826;5.850;2023-10-13T01:17:15;17.37;98.48
67054;SHT31;53960;51.826;5.850;2023-10-13T01:19:40;17.42;98.33
67054;SHT31;53960;51.826;5.850;2023-10-13T01:22:10;17.44;98.30
67054;SHT31;53960;51.826;5.850;2023-10-13T01:24:36;17.40;98.38
67054;SHT31;53960;51.826;5.850;2023-10-13T01:27:06;17.40;98.41
67054;SHT31;53960;51.826;5.850;2023-10-13T01:29:49;17.36;98.56
67054;SHT31;53960;51.826;5.850;2023-10-13T01:32:19;17.32;98.78
67054;SHT31;53960;51.826;5.850;2023-10-13T01:34:44;17.36;98.60
67054;SHT31;53960;51.826;5.850;2023-10-13T01:37:11;17.44;98.35
67054;SHT31;53960;51.826;5.850;2023-10-13T01:39:37;17.44;98.15
67054;SHT31;53960;51.826;5.850;2023-10-13T01:42:02;17.37;98.34
67054;SHT31;53960;51.826;5.850;2023-10-13T01:44:28;17.42;98.32
67054;SHT31;53960;51.826;5.850;2023-10-13T01:46:58;17.42;98.20
67054;SHT31;53960;51.826;5.850;2023-10-13T01:49:32;17.42;98.19
67054;SHT31;53960;51.826;5.850;2023-10-13T01:52:08;17.36;98.24
67054;SHT31;53960;51.826;5.850;2023-10-13T01:54:36;17.36;98.30
67054;SHT31;53960;51.826;5.850;2023-10-13T01:57:09;17.33;98.55
67054;SHT31;53960;51.826;5.850;2023-10-13T01:59:40;17.32;98.43
67054;SHT31;53960;51.826;5.850;2023-10-13T02:02:12;17.32;98.53
67054;SHT31;53960;51.826;5.850;2023-10-13T02:04:41;17.29;98.69
67054;SHT31;53960;51.826;5.850;2023-10-13T02:07:14;17.32;98.64
67054;SHT31;53960;51.826;5.850;2023-10-13T02:09:41;17.26;98.74
67054;SHT31;53960;51.826;5.850;2023-10-13T02:12:07;17.23;98.88
67054;SHT31;53960;51.826;5.850;2023-10-13T02:14:34;17.26;98.85
67054;SHT31;53960;51.826;5.850;2023-10-13T02:17:02;17.27;98.76
67054;SHT31;53960;51.826;5.850;2023-10-13T02:19:42;17.27;98.78
67054;SHT31;53960;51.826;5.850;2023-10-13T02:22:14;17.23;98.80
67054;SHT31;53960;51.826;5.850;2023-10-13T02:24:53;17.23;98.81
67054;SHT31;53960;51.826;5.850;2023-10-13T02:27:18;17.20;98.85
67054;SHT31;53960;51.826;5.850;2023-10-13T02:29:49;17.25;98.80
67054;SHT31;53960;51.826;5.850;2023-10-13T02:32:14;17.20;98.80
67054;SHT31;53960;51.826;5.850;2023-10-13T02:34:44;17.23;98.71
67054;SHT31;53960;51.826;5.850;2023-10-13T02:37:14;17.22;98.73
67054;SHT31;53960;51.826;5.850;2023-10-13T02:39:40;17.22;98.73
67054;SHT31;53960;51.826;5.850;2023-10-13T02:42:09;17.23;98.71
67054;SHT31;53960;51.826;5.850;2023-10-13T02:44:50;17.25;98.43
67054;SHT31;53960;51.826;5.850;2023-10-13T02:47:16;17.22;98.55
67054;SHT31;53960;51.826;5.850;2023-10-13T02:49:44;17.20;98.61
67054;SHT31;53960;51.826;5.850;2023-10-13T02:52:11;17.13;98.70
67054;SHT31;53960;51.826;5.850;2023-10-13T02:54:38;17.12;98.98
67054;SHT31;53960;51.826;5.850;2023-10-13T02:57:13;17.13;98.96
67054;SHT31;53960;51.826;5.850;2023-10-13T02:59:41;17.18;98.84
67054;SHT31;53960;51.826;5.850;2023-10-13T03:02:14;17.13;99.04
67054;SHT31;53960;51.826;5.850;2023-10-13T03:04:49;17.12;99.07
67054;SHT31;53960;51.826;5.850;2023-10-13T03:07:16;17.18;98.98
67054;SHT31;53960;51.826;5.850;2023-10-13T03:09:49;17.15;99.06
67054;SHT31;53960;51.826;5.850;2023-10-13T03:12:20;17.15;99.08
67054;SHT31;53960;51.826;5.850;2023-10-13T03:14:46;17.13;99.22
67054;SHT31;53960;51.826;5.850;2023-10-13T03:17:20;17.05;99.64
67054;SHT31;53960;51.826;5.850;2023-10-13T03:19:58;17.08;99.55
67054;SHT31;53960;51.826;5.850;2023-10-13T03:22:24;17.09;99.70
67054;SHT31;53960;51.826;5.850;2023-10-13T03:24:56;17.06;99.90
67054;SHT31;53960;51.826;5.850;2023-10-13T03:27:25;17.09;99.99
67054;SHT31;53960;51.826;5.850;2023-10-13T03:30:05;17.15;99.92
67054;SHT31;53960;51.826;5.850;2023-10-13T03:32:36;17.12;99.95
67054;SHT31;53960;51.826;5.850;2023-10-13T03:35:07;17.15;99.99
67054;SHT31;53960;51.826;5.850;2023-10-13T03:37:54;17.13;99.99
67054;SHT31;53960;51.826;5.850;2023-10-13T03:40:21;17.18;99.99
67054;SHT31;53960;51.826;5.850;2023-10-13T03:42:50;17.18;99.90
67054;SHT31;53960;51.826;5.850;2023-10-13T03:45:29;17.20;99.85
67054;SHT31;53960;51.826;5.850;2023-10-13T03:48:01;17.18;99.82
67054;SHT31;53960;51.826;5.850;2023-10-13T03:50:34;17.19;99.92
67054;SHT31;53960;51.826;5.850;2023-10-13T03:53:01;17.18;99.92
67054;SHT31;53960;51.826;5.850;2023-10-13T03:55:27;17.25;99.79
67054;SHT31;53960;51.826;5.850;2023-10-13T03:57:53;17.25;99.87
67054;SHT31;53960;51.826;5.850;2023-10-13T04:00:20;17.20;99.97
67054;SHT31;53960;51.826;5.850;2023-10-13T04:02:55;17.19;99.89
67054;SHT31;53960;51.826;5.850;2023-10-13T04:05:27;17.22;99.85
67054;SHT31;53960;51.826;5.850;2023-10-13T04:08:04;17.20;99.94
67054;SHT31;53960;51.826;5.850;2023-10-13T04:10:49;17.25;99.99
67054;SHT31;53960;51.826;5.850;2023-10-13T04:13:18;17.26;99.99
67054;SHT31;53960;51.826;5.850;2023-10-13T04:16:03;17.19;99.99
67054;SHT31;53960;51.826;5.850;2023-10-13T04:19:00;17.25;99.99
67054;SHT31;53960;51.826;5.850;2023-10-13T04:21:26;17.26;99.99
67054;SHT31;53960;51.826;5.850;2023-10-13T04:24:11;17.25;99.99
67054;SHT31;53960;51.826;5.850;2023-10-13T04:26:43;17.22;99.99
67054;SHT31;53960;51.826;5.850;2023-10-13T04:29:41;17.20;99.99
67054;SHT31;53960;51.826;5.850;2023-10-13T04:32:25;17.20;99.99
67054;SHT31;53960;51.826;5.850;2023-10-13T04:35:12;17.22;99.99
67054;SHT31;53960;51.826;5.850;2023-10-13T04:37:38;17.26;99.99
67054;SHT31;53960;51.826;5.850;2023-10-13T04:40:20;17.29;99.99
67054;SHT31;53960;51.826;5.850;2023-10-13T04:42:53;17.33;99.99
67054;SHT31;53960;51.826;5.850;2023-10-13T04:45:22;17.34;99.99
67054;SHT31;53960;51.826;5.850;2023-10-13T04:48:00;17.40;99.99
67054;SHT31;53960;51.826;5.850;2023-10-13T04:50:46;17.42;99.99
67054;SHT31;53960;51.826;5.850;2023-10-13T04:53:16;17.43;99.99
67054;SHT31;53960;51.826;5.850;2023-10-13T04:56:20;17.49;99.99
67054;SHT31;53960;51.826;5.850;2023-10-13T04:59:03;17.53;99.99
67054;SHT31;53960;51.826;5.850;2023-10-13T05:01:43;17.53;99.99
67054;SHT31;53960;51.826;5.850;2023-10-13T05:04:27;17.53;99.99
67054;SHT31;53960;51.826;5.850;2023-10-13T05:07:04;17.59;99.99
67054;SHT31;53960;51.826;5.850;2023-10-13T05:09:48;17.62;99.99
67054;SHT31;53960;51.826;5.850;2023-10-13T05:12:32;17.69;99.99
67054;SHT31;53960;51.826;5.850;2023-10-13T05:15:16;17.69;99.99
67054;SHT31;53960;51.826;5.850;2023-10-13T05:18:00;17.71;99.99
67054;SHT31;53960;51.826;5.850;2023-10-13T05:20:43;17.77;99.99
67054;SHT31;53960;51.826;5.850;2023-10-13T05:23:27;17.84;99.99
67054;SHT31;53960;51.826;5.850;2023-10-13T05:26:11;17.78;99.99
67054;SHT31;53960;51.826;5.850;2023-10-13T05:28:55;17.83;99.99
67054;SHT31;53960;51.826;5.850;2023-10-13T05:31:39;17.90;99.99
67054;SHT31;53960;51.826;5.850;2023-10-13T05:34:23;17.83;99.99
67054;SHT31;53960;51.826;5.850;2023-10-13T05:37:07;17.88;99.99
67054;SHT31;53960;51.826;5.850;2023-10-13T05:39:51;17.90;99.99
67054;SHT31;53960;51.826;5.850;2023-10-13T05:42:35;17.91;99.99
67054;SHT31;53960;51.826;5.850;2023-10-13T05:45:19;17.88;99.99
67054;SHT31;53960;51.826;5.850;2023-10-13T05:48:06;17.93;99.99
67054;SHT31;53960;51.826;5.850;2023-10-13T05:50:39;17.88;99.99
67054;SHT31;53960;51.826;5.850;2023-10-13T05:53:24;17.87;99.99
67054;SHT31;53960;51.826;5.850;2023-10-13T05:56:07;17.87;99.99
67054;SHT31;53960;51.826;5.850;2023-10-13T05:58:52;17.93;99.99
67054;SHT31;53960;51.826;5.850;2023-10-13T06:01:35;17.93;99.99
67054;SHT31;53960;51.826;5.850;2023-10-13T06:04:19;17.91;99.99
67054;SHT31;53960;51.826;5.850;2023-10-13T06:07:03;17.88;99.99
67054;SHT31;53960;51.826;5.850;2023-10-13T06:09:47;17.88;99.99
67054;SHT31;53960;51.826;5.850;2023-10-13T06:12:31;17.88;99.99
67054;SHT31;53960;51.826;5.850;2023-10-13T06:15:15;17.90;99.99
67054;SHT31;53960;51.826;5.850;2023-10-13T06:17:59;17.94;99.99
67054;SHT31;53960;51.826;5.850;2023-10-13T06:20:43;17.97;99.99
67054;SHT31;53960;51.826;5.850;2023-10-13T06:23:27;17.94;99.99
67054;SHT31;53960;51.826;5.850;2023-10-13T06:26:11;17.98;99.99
67054;SHT31;53960;51.826;5.850;2023-10-13T06:28:55;17.95;99.99
67054;SHT31;53960;51.826;5.850;2023-10-13T06:31:20;18.00;99.99
67054;SHT31;53960;51.826;5.850;2023-10-13T06:33:50;17.95;99.99
67054;SHT31;53960;51.826;5.850;2023-10-13T06:36:16;17.95;99.99
67054;SHT31;53960;51.826;5.850;2023-10-13T06:38:43;17.98;99.99
67054;SHT31;53960;51.826;5.850;2023-10-13T06:41:08;17.98;99.99
67054;SHT31;53960;51.826;5.850;2023-10-13T06:43:35;18.04;99.99
67054;SHT31;53960;51.826;5.850;2023-10-13T06:46:11;18.04;99.99
67054;SHT31;53960;51.826;5.850;2023-10-13T06:48:48;18.04;99.99
67054;SHT31;53960;51.826;5.850;2023-10-13T06:51:15;18.05;99.99
67054;SHT31;53960;51.826;5.850;2023-10-13T06:53:45;18.08;99.99
67054;SHT31;53960;51.826;5.850;2023-10-13T06:56:13;18.11;99.99
67054;SHT31;53960;51.826;5.850;2023-10-13T06:58:44;18.06;99.99
67054;SHT31;53960;51.826;5.850;2023-10-13T07:01:09;18.06;99.99
67054;SHT31;53960;51.826;5.850;2023-10-13T07:03:41;18.04;99.99
67054;SHT31;53960;51.826;5.850;2023-10-13T07:06:07;18.05;99.99
67054;SHT31;53960;51.826;5.850;2023-10-13T07:08:36;18.01;99.99
67054;SHT31;53960;51.826;5.850;2023-10-13T07:11:02;18.02;99.99
67054;SHT31;53960;51.826;5.850;2023-10-13T07:13:33;18.01;99.99
67054;SHT31;53960;51.826;5.850;2023-10-13T07:16:05;17.97;99.99
67054;SHT31;53960;51.826;5.850;2023-10-13T07:18:37;17.97;99.99
67054;SHT31;53960;51.826;5.850;2023-10-13T07:21:09;17.97;99.89
67054;SHT31;53960;51.826;5.850;2023-10-13T07:23:37;17.98;99.81
67054;SHT31;53960;51.826;5.850;2023-10-13T07:26:05;17.94;99.80
67054;SHT31;53960;51.826;5.850;2023-10-13T07:28:33;17.94;99.85
67054;SHT31;53960;51.826;5.850;2023-10-13T07:31:03;17.95;99.97
67054;SHT31;53960;51.826;5.850;2023-10-13T07:33:28;18.01;99.68
67054;SHT31;53960;51.826;5.850;2023-10-13T07:36:04;18.00;99.85
67054;SHT31;53960;51.826;5.850;2023-10-13T07:38:44;18.01;99.71
67054;SHT31;53960;51.826;5.850;2023-10-13T07:41:14;18.00;99.89
67054;SHT31;53960;51.826;5.850;2023-10-13T07:43:42;18.05;99.80
67054;SHT31;53960;51.826;5.850;2023-10-13T07:46:08;18.02;99.97
67054;SHT31;53960;51.826;5.850;2023-10-13T07:48:38;18.08;99.98
67054;SHT31;53960;51.826;5.850;2023-10-13T07:51:07;18.12;99.93
67054;SHT31;53960;51.826;5.850;2023-10-13T07:53:39;18.14;99.80
67054;SHT31;53960;51.826;5.850;2023-10-13T07:56:08;18.15;99.85
67054;SHT31;53960;51.826;5.850;2023-10-13T07:58:35;18.15;99.90
67054;SHT31;53960;51.826;5.850;2023-10-13T08:01:12;18.15;99.99
67054;SHT31;53960;51.826;5.850;2023-10-13T08:03:42;18.25;99.85
67054;SHT31;53960;51.826;5.850;2023-10-13T08:06:17;18.28;99.74
67054;SHT31;53960;51.826;5.850;2023-10-13T08:08:42;18.25;99.76
67054;SHT31;53960;51.826;5.850;2023-10-13T08:11:10;18.26;99.70
67054;SHT31;53960;51.826;5.850;2023-10-13T08:13:58;18.32;99.39
67054;SHT31;53960;51.826;5.850;2023-10-13T08:16:33;18.36;99.54
67054;SHT31;53960;51.826;5.850;2023-10-13T08:19:22;18.38;99.10
67054;SHT31;53960;51.826;5.850;2023-10-13T08:22:05;18.42;99.01
67054;SHT31;53960;51.826;5.850;2023-10-13T08:24:42;18.48;98.72
67054;SHT31;53960;51.826;5.850;2023-10-13T08:27:08;18.57;98.55
67054;SHT31;53960;51.826;5.850;2023-10-13T08:29:52;18.57;98.28
67054;SHT31;53960;51.826;5.850;2023-10-13T08:32:24;18.66;98.06
67054;SHT31;53960;51.826;5.850;2023-10-13T08:34:52;18.72;97.97
67054;SHT31;53960;51.826;5.850;2023-10-13T08:37:17;18.82;97.71
67054;SHT31;53960;51.826;5.850;2023-10-13T08:39:49;18.94;97.41
67054;SHT31;53960;51.826;5.850;2023-10-13T08:42:32;19.04;96.80
67054;SHT31;53960;51.826;5.850;2023-10-13T08:45:10;19.10;96.33
67054;SHT31;53960;51.826;5.850;2023-10-13T08:47:55;19.14;95.94
67054;SHT31;53960;51.826;5.850;2023-10-13T08:50:36;19.18;95.25
67054;SHT31;53960;51.826;5.850;2023-10-13T08:53:24;19.20;94.78
67054;SHT31;53960;51.826;5.850;2023-10-13T08:56:07;19.28;94.98
67054;SHT31;53960;51.826;5.850;2023-10-13T08:58:34;19.28;95.10
67054;SHT31;53960;51.826;5.850;2023-10-13T09:01:31;19.32;94.93
67054;SHT31;53960;51.826;5.850;2023-10-13T09:04:19;19.35;94.56
67054;SHT31;53960;51.826;5.850;2023-10-13T09:07:03;19.39;94.39
67054;SHT31;53960;51.826;5.850;2023-10-13T09:12:30;19.44;93.77
67054;SHT31;53960;51.826;5.850;2023-10-13T09:17:47;19.49;93.46
67054;SHT31;53960;51.826;5.850;2023-10-13T09:20:16;19.55;93.22
67054;SHT31;53960;51.826;5.850;2023-10-13T09:22:49;19.57;93.30
67054;SHT31;53960;51.826;5.850;2023-10-13T09:25:26;19.59;92.56
67054;SHT31;53960;51.826;5.850;2023-10-13T09:27:58;19.57;92.56
67054;SHT31;53960;51.826;5.850;2023-10-13T09:30:26;19.54;91.92
67054;SHT31;53960;51.826;5.850;2023-10-13T09:33:00;19.61;91.60
67054;SHT31;53960;51.826;5.850;2023-10-13T09:35:27;19.62;91.30
67054;SHT31;53960;51.826;5.850;2023-10-13T09:37:54;19.58;91.55
67054;SHT31;53960;51.826;5.850;2023-10-13T09:40:23;19.58;91.33
67054;SHT31;53960;51.826;5.850;2023-10-13T09:42:58;19.62;91.30
67054;SHT31;53960;51.826;5.850;2023-10-13T09:45:30;19.61;91.37
67054;SHT31;53960;51.826;5.850;2023-10-13T09:48:02;19.69;90.51
67054;SHT31;53960;51.826;5.850;2023-10-13T09:50:36;19.76;90.06
67054;SHT31;53960;51.826;5.850;2023-10-13T09:53:04;19.82;89.71
67054;SHT31;53960;51.826;5.850;2023-10-13T09:55:38;19.83;89.72
67054;SHT31;53960;51.826;5.850;2023-10-13T09:58:07;19.83;89.23
67054;SHT31;53960;51.826;5.850;2023-10-13T10:00:47;19.90;88.77
67054;SHT31;53960;51.826;5.850;2023-10-13T10:03:15;19.90;89.19
67054;SHT31;53960;51.826;5.850;2023-10-13T10:06:02;19.92;89.47
67054;SHT31;53960;51.826;5.850;2023-10-13T10:08:44;19.96;89.18
67054;SHT31;53960;51.826;5.850;2023-10-13T10:11:23;19.96;88.90
67054;SHT31;53960;51.826;5.850;2023-10-13T10:17:08;19.93;89.01
67054;SHT31;53960;51.826;5.850;2023-10-13T10:19:54;19.97;89.16
67054;SHT31;53960;51.826;5.850;2023-10-13T10:22:30;19.93;88.99
67054;SHT31;53960;51.826;5.850;2023-10-13T10:25:05;20.01;88.38
67054;SHT31;53960;51.826;5.850;2023-10-13T10:27:58;19.96;88.83
67054;SHT31;53960;51.826;5.850;2023-10-13T10:30:27;19.94;88.63
67054;SHT31;53960;51.826;5.850;2023-10-13T10:32:57;19.92;88.91
67054;SHT31;53960;51.826;5.850;2023-10-13T10:35:25;19.86;89.04
67054;SHT31;53960;51.826;5.850;2023-10-13T10:38:08;19.85;88.93
67054;SHT31;53960;51.826;5.850;2023-10-13T10:40:56;19.89;88.90
67054;SHT31;53960;51.826;5.850;2023-10-13T10:43:28;19.92;88.92
67054;SHT31;53960;51.826;5.850;2023-10-13T10:46:10;19.93;88.42
67054;SHT31;53960;51.826;5.850;2023-10-13T10:48:36;20.00;88.71
67054;SHT31;53960;51.826;5.850;2023-10-13T10:51:04;20.03;88.45
67054;SHT31;53960;51.826;5.850;2023-10-13T10:53:39;20.05;88.82
67054;SHT31;53960;51.826;5.850;2023-10-13T10:56:14;20.09;87.89
67054;SHT31;53960;51.826;5.850;2023-10-13T10:58:49;20.12;88.22
67054;SHT31;53960;51.826;5.850;2023-10-13T11:01:20;20.17;88.03
67054;SHT31;53960;51.826;5.850;2023-10-13T11:04:13;20.20;88.24
67054;SHT31;53960;51.826;5.850;2023-10-13T11:06:54;20.26;87.75
67054;SHT31;53960;51.826;5.850;2023-10-13T11:09:33;20.29;87.49
67054;SHT31;53960;51.826;5.850;2023-10-13T11:12:12;20.27;87.46
67054;SHT31;53960;51.826;5.850;2023-10-13T11:14:42;20.33;87.09
67054;SHT31;53960;51.826;5.850;2023-10-13T11:17:19;20.27;87.22
67054;SHT31;53960;51.826;5.850;2023-10-13T11:19:50;20.27;87.48
67054;SHT31;53960;51.826;5.850;2023-10-13T11:22:19;20.29;86.86
67054;SHT31;53960;51.826;5.850;2023-10-13T11:25:07;20.31;86.72
67054;SHT31;53960;51.826;5.850;2023-10-13T11:27:41;20.34;86.89
67054;SHT31;53960;51.826;5.850;2023-10-13T11:30:21;20.36;86.03
67054;SHT31;53960;51.826;5.850;2023-10-13T11:33:10;20.40;85.98
67054;SHT31;53960;51.826;5.850;2023-10-13T11:35:39;20.40;85.45
67054;SHT31;53960;51.826;5.850;2023-10-13T11:38:15;20.47;85.69
67054;SHT31;53960;51.826;5.850;2023-10-13T11:40:41;20.47;85.60
67054;SHT31;53960;51.826;5.850;2023-10-13T11:43:12;20.57;84.68
67054;SHT31;53960;51.826;5.850;2023-10-13T11:45:47;20.69;83.78
67054;SHT31;53960;51.826;5.850;2023-10-13T11:48:31;20.71;83.97
67054;SHT31;53960;51.826;5.850;2023-10-13T11:51:05;20.74;84.26
67054;SHT31;53960;51.826;5.850;2023-10-13T11:53:36;20.68;84.93
67054;SHT31;53960;51.826;5.850;2023-10-13T11:56:03;20.75;85.01
67054;SHT31;53960;51.826;5.850;2023-10-13T11:58:39;20.82;84.26
67054;SHT31;53960;51.826;5.850;2023-10-13T12:01:04;20.89;83.80
67054;SHT31;53960;51.826;5.850;2023-10-13T12:03:39;20.99;83.33
67054;SHT31;53960;51.826;5.850;2023-10-13T12:06:27;21.05;83.21
67054;SHT31;53960;51.826;5.850;2023-10-13T12:09:09;21.13;82.85
67054;SHT31;53960;51.826;5.850;2023-10-13T12:11:47;21.18;83.32
67054;SHT31;53960;51.826;5.850;2023-10-13T12:14:14;21.22;82.65
67054;SHT31;53960;51.826;5.850;2023-10-13T12:16:48;21.26;82.45
67054;SHT31;53960;51.826;5.850;2023-10-13T12:19:20;21.30;82.30
67054;SHT31;53960;51.826;5.850;2023-10-13T12:21:49;21.32;82.02
67054;SHT31;53960;51.826;5.850;2023-10-13T12:24:14;21.35;81.61
67054;SHT31;53960;51.826;5.850;2023-10-13T12:26:59;21.35;81.91
67054;SHT31;53960;51.826;5.850;2023-10-13T12:29:24;21.39;81.23
67054;SHT31;53960;51.826;5.850;2023-10-13T12:31:57;21.37;80.52
67054;SHT31;53960;51.826;5.850;2023-10-13T12:34:37;21.40;80.65
67054;SHT31;53960;51.826;5.850;2023-10-13T12:37:42;21.50;80.46
67054;SHT31;53960;51.826;5.850;2023-10-13T12:40:13;21.47;80.55
67054;SHT31;53960;51.826;5.850;2023-10-13T12:43:14;21.54;80.13
67054;SHT31;53960;51.826;5.850;2023-10-13T12:45:57;21.51;80.42
67054;SHT31;53960;51.826;5.850;2023-10-13T12:48:42;21.50;80.74
67054;SHT31;53960;51.826;5.850;2023-10-13T12:51:26;21.45;80.24
67054;SHT31;53960;51.826;5.850;2023-10-13T12:53:57;21.40;81.00
67054;SHT31;53960;51.826;5.850;2023-10-13T12:56:52;21.43;81.00
67054;SHT31;53960;51.826;5.850;2023-10-13T12:59:22;21.43;80.82
67054;SHT31;53960;51.826;5.850;2023-10-13T13:01:52;21.47;80.57
67054;SHT31;53960;51.826;5.850;2023-10-13T13:04:18;21.50;80.45
67054;SHT31;53960;51.826;5.850;2023-10-13T13:06:48;21.47;80.77
67054;SHT31;53960;51.826;5.850;2023-10-13T13:09:13;21.56;80.08
67054;SHT31;53960;51.826;5.850;2023-10-13T13:11:39;21.57;80.30
67054;SHT31;53960;51.826;5.850;2023-10-13T13:14:07;21.58;80.40
67054;SHT31;53960;51.826;5.850;2023-10-13T13:16:33;21.57;79.88
67054;SHT31;53960;51.826;5.850;2023-10-13T13:18:58;21.54;80.55
67054;SHT31;53960;51.826;5.850;2023-10-13T13:21:24;21.57;79.86
67054;SHT31;53960;51.826;5.850;2023-10-13T13:23:52;21.61;79.87
67054;SHT31;53960;51.826;5.850;2023-10-13T13:26:21;21.60;79.73
67054;SHT31;53960;51.826;5.850;2023-10-13T13:28:48;21.54;80.36
67054;SHT31;53960;51.826;5.850;2023-10-13T13:31:19;21.56;80.41
67054;SHT31;53960;51.826;5.850;2023-10-13T13:33:50;21.56;79.85
67054;SHT31;53960;51.826;5.850;2023-10-13T13:36:15;21.66;79.13
67054;SHT31;53960;51.826;5.850;2023-10-13T13:38:44;21.61;79.22
67054;SHT31;53960;51.826;5.850;2023-10-13T13:41:15;21.66;78.60
67054;SHT31;53960;51.826;5.850;2023-10-13T13:43:48;21.68;78.88
67054;SHT31;53960;51.826;5.850;2023-10-13T13:46:26;21.63;79.19
67054;SHT31;53960;51.826;5.850;2023-10-13T13:48:58;21.61;79.41
67054;SHT31;53960;51.826;5.850;2023-10-13T13:51:25;21.63;79.04
67054;SHT31;53960;51.826;5.850;2023-10-13T13:53:55;21.70;78.64
67054;SHT31;53960;51.826;5.850;2023-10-13T13:56:21;21.70;78.47
67054;SHT31;53960;51.826;5.850;2023-10-13T13:58:50;21.71;78.47
67054;SHT31;53960;51.826;5.850;2023-10-13T14:01:16;21.63;79.47
67054;SHT31;53960;51.826;5.850;2023-10-13T14:03:47;21.66;78.35
67054;SHT31;53960;51.826;5.850;2023-10-13T14:06:17;21.74;77.83
67054;SHT31;53960;51.826;5.850;2023-10-13T14:09:02;21.71;78.10
67054;SHT31;53960;51.826;5.850;2023-10-13T14:11:31;21.68;77.97
67054;SHT31;53960;51.826;5.850;2023-10-13T14:14:13;21.66;78.08
67054;SHT31;53960;51.826;5.850;2023-10-13T14:16:40;21.61;78.30
67054;SHT31;53960;51.826;5.850;2023-10-13T14:19:13;21.61;78.28
67054;SHT31;53960;51.826;5.850;2023-10-13T14:21:59;21.66;78.00
67054;SHT31;53960;51.826;5.850;2023-10-13T14:24:31;21.68;77.42
67054;SHT31;53960;51.826;5.850;2023-10-13T14:27:01;21.74;77.30
67054;SHT31;53960;51.826;5.850;2023-10-13T14:29:33;21.73;77.33
67054;SHT31;53960;51.826;5.850;2023-10-13T14:31:59;21.74;77.50
67054;SHT31;53960;51.826;5.850;2023-10-13T14:34:25;21.78;77.21
67054;SHT31;53960;51.826;5.850;2023-10-13T14:36:51;21.83;76.89
67054;SHT31;53960;51.826;5.850;2023-10-13T14:39:19;21.78;76.93
67054;SHT31;53960;51.826;5.850;2023-10-13T14:41:46;21.80;76.85
67054;SHT31;53960;51.826;5.850;2023-10-13T14:44:13;21.78;77.28
67054;SHT31;53960;51.826;5.850;2023-10-13T14:46:38;21.80;77.65
67054;SHT31;53960;51.826;5.850;2023-10-13T14:49:05;21.80;77.20
67054;SHT31;53960;51.826;5.850;2023-10-13T14:51:30;21.73;77.99
67054;SHT31;53960;51.826;5.850;2023-10-13T14:53:57;21.67;78.06
67054;SHT31;53960;51.826;5.850;2023-10-13T14:56:25;21.66;78.07
67054;SHT31;53960;51.826;5.850;2023-10-13T14:58:52;21.66;78.12
67054;SHT31;53960;51.826;5.850;2023-10-13T15:01:19;21.58;78.34
67054;SHT31;53960;51.826;5.850;2023-10-13T15:03:50;21.64;77.67
67054;SHT31;53960;51.826;5.850;2023-10-13T15:06:22;21.64;77.31
67054;SHT31;53960;51.826;5.850;2023-10-13T15:08:52;21.64;77.45
67054;SHT31;53960;51.826;5.850;2023-10-13T15:11:20;21.60;77.75
67054;SHT31;53960;51.826;5.850;2023-10-13T15:13:46;21.54;78.54
67054;SHT31;53960;51.826;5.850;2023-10-13T15:16:19;21.50;78.75
67054;SHT31;53960;51.826;5.850;2023-10-13T15:18:45;21.54;78.71
67054;SHT31;53960;51.826;5.850;2023-10-13T15:21:18;21.51;79.68
67054;SHT31;53960;51.826;5.850;2023-10-13T15:23:44;21.46;79.69
67054;SHT31;53960;51.826;5.850;2023-10-13T15:26:10;21.36;80.63
67054;SHT31;53960;51.826;5.850;2023-10-13T15:28:38;21.28;81.28
67054;SHT31;53960;51.826;5.850;2023-10-13T15:31:11;21.16;81.38
67054;SHT31;53960;51.826;5.850;2023-10-13T15:33:50;21.06;81.96
67054;SHT31;53960;51.826;5.850;2023-10-13T15:36:18;21.00;82.25
67054;SHT31;53960;51.826;5.850;2023-10-13T15:38:45;20.88;83.01
67054;SHT31;53960;51.826;5.850;2023-10-13T15:41:12;20.82;83.88
67054;SHT31;53960;51.826;5.850;2023-10-13T15:43:37;20.68;84.36
67054;SHT31;53960;51.826;5.850;2023-10-13T15:46:15;20.60;84.53
67054;SHT31;53960;51.826;5.850;2023-10-13T15:48:41;20.54;84.86
67054;SHT31;53960;51.826;5.850;2023-10-13T15:51:10;20.45;85.12
67054;SHT31;53960;51.826;5.850;2023-10-13T15:53:39;20.41;85.50
67054;SHT31;53960;51.826;5.850;2023-10-13T15:56:05;20.33;85.22
67054;SHT31;53960;51.826;5.850;2023-10-13T15:58:39;20.24;86.14
67054;SHT31;53960;51.826;5.850;2023-10-13T16:01:05;20.20;86.12
67054;SHT31;53960;51.826;5.850;2023-10-13T16:03:33;20.09;86.41
67054;SHT31;53960;51.826;5.850;2023-10-13T16:06:01;20.12;86.44
67054;SHT31;53960;51.826;5.850;2023-10-13T16:08:29;20.06;86.73
67054;SHT31;53960;51.826;5.850;2023-10-13T16:11:06;20.00;86.50
67054;SHT31;53960;51.826;5.850;2023-10-13T16:13:41;19.96;86.71
67054;SHT31;53960;51.826;5.850;2023-10-13T16:16:23;20.01;86.45
67054;SHT31;53960;51.826;5.850;2023-10-13T16:18:52;19.99;86.65